sensor_id;sensor_type;location;lat;lon;timestamp;pressure;altitude;pressure_sealevel;temperature;humidity
12775;BME280;6451;42.630;23.382;2023-04-02T00:02:30;93492.56;;;14.35;62.32
12775;BME280;6451;42.630;23.382;2023-04-02T00:05:31;93481.25;;;14.15;63.47
12775;BME280;6451;42.630;23.382;2023-04-02T00:08:27;93495.69;;;14.44;62.02
12775;BME280;6451;42.630;23.382;2023-04-02T00:10:58;93489.06;;;14.66;61.57
12775;BME280;6451;42.630;23.382;2023-04-02T00:13:32;93493.75;;;14.27;62.09
12775;BME280;6451;42.630;23.382;2023-04-02T00:16:00;93493.75;;;14.27;62.11
12775;BME280;6451;42.630;23.382;2023-04-02T00:18:29;93475.03;;;14.50;60.86
12775;BME280;6451;42.630;23.382;2023-04-02T00:21:07;93473.47;;;14.31;61.10
12775;BME280;6451;42.630;23.382;2023-04-02T00:23:37;93490.97;;;14.02;61.35
12775;BME280;6451;42.630;23.382;2023-04-02T00:26:07;93468.41;;;14.37;60.81
12775;BME280;6451;42.630;23.382;2023-04-02T00:28:48;93467.22;;;14.59;60.37
12775;BME280;6451;42.630;23.382;2023-04-02T00:31:17;93473.84;;;14.44;60.01
12775;BME280;6451;42.630;23.382;2023-04-02T00:33:47;93455.16;;;14.14;59.90
12775;BME280;6451;42.630;23.382;2023-04-02T00:36:17;93469.97;;;14.49;59.48
12775;BME280;6451;42.630;23.382;2023-04-02T00:38:45;93463.34;;;14.21;60.55
12775;BME280;6451;42.630;23.382;2023-04-02T00:41:15;93400.50;;;13.25;60.90
12775;BME280;6451;42.630;23.382;2023-04-02T00:43:44;93474.97;;;13.79;60.84
12775;BME280;6451;42.630;23.382;2023-04-02T00:46:16;93407.59;;;13.54;60.79
12775;BME280;6451;42.630;23.382;2023-04-02T00:48:51;93448.91;;;14.10;60.44
12775;BME280;6451;42.630;23.382;2023-04-02T00:51:23;93474.22;;;14.67;59.82
12775;BME280;6451;42.630;23.382;2023-04-02T00:53:53;93449.28;;;14.58;58.78
12775;BME280;6451;42.630;23.382;2023-04-02T00:56:25;93478.53;;;14.36;59.33
12775;BME280;6451;42.630;23.382;2023-04-02T00:58:56;93464.91;;;14.04;60.25
12775;BME280;6451;42.630;23.382;2023-04-02T01:01:28;93272.78;;;12.73;61.30
12775;BME280;6451;42.630;23.382;2023-04-02T01:03:59;93465.25;;;14.70;60.85
12775;BME280;6451;42.630;23.382;2023-04-02T01:06:30;93467.56;;;14.86;58.91
12775;BME280;6451;42.630;23.382;2023-04-02T01:09:24;93462.16;;;14.61;58.99
12775;BME280;6451;42.630;23.382;2023-04-02T01:12:06;93457.88;;;14.32;60.32
12775;BME280;6451;42.630;23.382;2023-04-02T01:14:46;93476.97;;;14.25;60.07
12775;BME280;6451;42.630;23.382;2023-04-02T01:17:25;93478.16;;;14.49;61.62
12775;BME280;6451;42.630;23.382;2023-04-02T01:23:14;93494.44;;;13.67;69.99
12775;BME280;6451;42.630;23.382;2023-04-02T01:25:48;93496.53;;;13.04;74.45
12775;BME280;6451;42.630;23.382;2023-04-02T01:28:21;93495.38;;;13.08;77.25
12775;BME280;6451;42.630;23.382;2023-04-02T01:30:56;93423.97;;;11.54;83.27
12775;BME280;6451;42.630;23.382;2023-04-02T01:33:29;93472.78;;;11.84;85.73
12775;BME280;6451;42.630;23.382;2023-04-02T01:36:04;93497.19;;;12.21;85.08
12775;BME280;6451;42.630;23.382;2023-04-02T01:38:36;93501.34;;;12.08;84.00
12775;BME280;6451;42.630;23.382;2023-04-02T01:41:10;93499.31;;;12.45;82.06
12775;BME280;6451;42.630;23.382;2023-04-02T01:43:45;93435.03;;;12.27;80.14
12775;BME280;6451;42.630;23.382;2023-04-02T01:46:25;93495.47;;;13.23;77.95
12775;BME280;6451;42.630;23.382;2023-04-02T01:48:52;93492.38;;;13.28;75.44
12775;BME280;6451;42.630;23.382;2023-04-02T01:51:26;93490.50;;;13.43;75.02
12775;BME280;6451;42.630;23.382;2023-04-02T01:53:54;93496.56;;;13.15;74.76
12775;BME280;6451;42.630;23.382;2023-04-02T01:56:21;93436.06;;;12.70;77.58
12775;BME280;6451;42.630;23.382;2023-04-02T01:58:48;93490.25;;;12.93;80.32
12775;BME280;6451;42.630;23.382;2023-04-02T02:01:18;93490.41;;;12.52;82.70
12775;BME280;6451;42.630;23.382;2023-04-02T02:03:48;93496.00;;;12.73;83.88
12775;BME280;6451;42.630;23.382;2023-04-02T02:06:17;93471.41;;;12.63;84.00
12775;BME280;6451;42.630;23.382;2023-04-02T02:08:47;93500.47;;;12.48;84.78
12775;BME280;6451;42.630;23.382;2023-04-02T02:11:17;93458.72;;;12.22;85.21
12775;BME280;6451;42.630;23.382;2023-04-02T02:13:45;93490.50;;;12.66;85.49
12775;BME280;6451;42.630;23.382;2023-04-02T02:16:15;93485.84;;;12.12;87.53
12775;BME280;6451;42.630;23.382;2023-04-02T02:18:45;93410.84;;;11.63;88.23
12775;BME280;6451;42.630;23.382;2023-04-02T02:21:24;93434.66;;;11.77;88.74
12775;BME280;6451;42.630;23.382;2023-04-02T02:23:56;93468.72;;;12.11;89.03
12775;BME280;6451;42.630;23.382;2023-04-02T02:26:24;93483.75;;;12.46;87.18
12775;BME280;6451;42.630;23.382;2023-04-02T02:28:54;93495.47;;;12.02;91.31
12775;BME280;6451;42.630;23.382;2023-04-02T02:31:28;93503.56;;;12.43;89.33
12775;BME280;6451;42.630;23.382;2023-04-02T02:33:59;93433.75;;;12.10;88.56
12775;BME280;6451;42.630;23.382;2023-04-02T02:36:34;93495.31;;;12.29;88.75
12775;BME280;6451;42.630;23.382;2023-04-02T02:39:10;93487.59;;;12.38;89.80
12775;BME280;6451;42.630;23.382;2023-04-02T02:41:41;93478.47;;;12.12;89.77
12775;BME280;6451;42.630;23.382;2023-04-02T02:44:13;93495.09;;;12.55;89.04
12775;BME280;6451;42.630;23.382;2023-04-02T02:46:44;93493.56;;;12.61;88.40
12775;BME280;6451;42.630;23.382;2023-04-02T02:49:15;93496.63;;;12.56;88.40
12775;BME280;6451;42.630;23.382;2023-04-02T02:51:48;93486.38;;;11.84;91.49
12775;BME280;6451;42.630;23.382;2023-04-02T02:54:17;93489.75;;;12.18;91.68
12775;BME280;6451;42.630;23.382;2023-04-02T02:56:47;93441.53;;;12.11;90.22
12775;BME280;6451;42.630;23.382;2023-04-02T02:59:18;93483.47;;;12.58;88.65
12775;BME280;6451;42.630;23.382;2023-04-02T03:01:51;93473.22;;;12.37;89.46
12775;BME280;6451;42.630;23.382;2023-04-02T03:04:20;93480.19;;;12.35;90.26
12775;BME280;6451;42.630;23.382;2023-04-02T03:06:50;93465.69;;;11.76;92.35
12775;BME280;6451;42.630;23.382;2023-04-02T03:09:22;93494.38;;;11.69;93.57
12775;BME280;6451;42.630;23.382;2023-04-02T03:12:00;93491.25;;;12.08;93.97
12775;BME280;6451;42.630;23.382;2023-04-02T03:14:32;93498.63;;;11.70;94.79
12775;BME280;6451;42.630;23.382;2023-04-02T03:17:05;93498.69;;;12.18;91.62
12775;BME280;6451;42.630;23.382;2023-04-02T03:19:39;93490.03;;;11.61;93.42
12775;BME280;6451;42.630;23.382;2023-04-02T03:22:16;93502.81;;;12.46;90.36
12775;BME280;6451;42.630;23.382;2023-04-02T03:24:52;93506.56;;;11.83;92.80
12775;BME280;6451;42.630;23.382;2023-04-02T03:27:26;93487.66;;;11.97;93.82
12775;BME280;6451;42.630;23.382;2023-04-02T03:30:04;93504.50;;;12.13;92.39
12775;BME280;6451;42.630;23.382;2023-04-02T03:32:37;93493.00;;;11.86;91.93
12775;BME280;6451;42.630;23.382;2023-04-02T03:35:14;93496.38;;;11.76;92.99
12775;BME280;6451;42.630;23.382;2023-04-02T03:37:48;93455.94;;;11.30;94.98
12775;BME280;6451;42.630;23.382;2023-04-02T03:40:21;93485.47;;;12.17;91.09
12775;BME280;6451;42.630;23.382;2023-04-02T03:42:53;93515.63;;;11.98;92.32
12775;BME280;6451;42.630;23.382;2023-04-02T03:45:27;93412.00;;;11.62;91.32
12775;BME280;6451;42.630;23.382;2023-04-02T03:47:57;93517.47;;;11.86;92.47
12775;BME280;6451;42.630;23.382;2023-04-02T03:50:29;93519.00;;;11.84;92.76
12775;BME280;6451;42.630;23.382;2023-04-02T03:53:02;93527.34;;;12.05;92.87
12775;BME280;6451;42.630;23.382;2023-04-02T03:55:33;93524.91;;;11.93;92.70
12775;BME280;6451;42.630;23.382;2023-04-02T03:58:05;93523.34;;;11.95;92.41
12775;BME280;6451;42.630;23.382;2023-04-02T04:00:38;93515.63;;;11.98;92.04
12775;BME280;6451;42.630;23.382;2023-04-02T04:03:10;93438.47;;;11.68;92.06
12775;BME280;6451;42.630;23.382;2023-04-02T04:05:44;93517.75;;;11.78;92.78
12775;BME280;6451;42.630;23.382;2023-04-02T04:08:17;93496.66;;;12.05;93.07
12775;BME280;6451;42.630;23.382;2023-04-02T04:10:45;93515.88;;;11.82;93.64
12775;BME280;6451;42.630;23.382;2023-04-02T04:13:19;93521.28;;;12.26;93.74
12775;BME280;6451;42.630;23.382;2023-04-02T04:15:53;93493.06;;;11.93;96.49
12775;BME280;6451;42.630;23.382;2023-04-02T04:18:28;93506.53;;;12.23;93.37
12775;BME280;6451;42.630;23.382;2023-04-02T04:21:05;93450.66;;;11.82;93.29
12775;BME280;6451;42.630;23.382;2023-04-02T04:23:46;93525.91;;;12.18;93.79
12775;BME280;6451;42.630;23.382;2023-04-02T04:26:24;93530.66;;;12.29;92.57
12775;BME280;6451;42.630;23.382;2023-04-02T04:29:01;93544.91;;;11.78;93.28
12775;BME280;6451;42.630;23.382;2023-04-02T04:31:37;93526.09;;;11.58;93.04
12775;BME280;6451;42.630;23.382;2023-04-02T04:34:10;93537.91;;;11.77;93.89
12775;BME280;6451;42.630;23.382;2023-04-02T04:36:43;93542.66;;;11.50;94.03
12775;BME280;6451;42.630;23.382;2023-04-02T04:39:18;93528.84;;;11.62;92.89
12775;BME280;6451;42.630;23.382;2023-04-02T04:41:49;93536.53;;;11.56;92.84
12775;BME280;6451;42.630;23.382;2023-04-02T04:44:21;93461.91;;;11.09;92.12
12775;BME280;6451;42.630;23.382;2023-04-02T04:46:53;93544.31;;;11.91;88.98
12775;BME280;6451;42.630;23.382;2023-04-02T04:49:24;93555.78;;;11.78;90.07
12775;BME280;6451;42.630;23.382;2023-04-02T04:51:56;93553.78;;;12.05;89.21
12775;BME280;6451;42.630;23.382;2023-04-02T04:54:27;93512.06;;;11.53;89.72
12775;BME280;6451;42.630;23.382;2023-04-02T04:57:00;93383.63;;;10.78;89.12
12775;BME280;6451;42.630;23.382;2023-04-02T04:59:30;93552.41;;;12.29;88.38
12775;BME280;6451;42.630;23.382;2023-04-02T05:02:02;93451.44;;;11.86;87.39
12775;BME280;6451;42.630;23.382;2023-04-02T05:04:34;93531.25;;;12.56;89.94
12775;BME280;6451;42.630;23.382;2023-04-02T05:07:06;93532.50;;;12.65;88.40
12775;BME280;6451;42.630;23.382;2023-04-02T05:09:39;93528.28;;;12.23;86.37
12775;BME280;6451;42.630;23.382;2023-04-02T05:12:15;93522.72;;;12.61;85.29
12775;BME280;6451;42.630;23.382;2023-04-02T05:14:48;93550.66;;;12.54;86.87
12775;BME280;6451;42.630;23.382;2023-04-02T05:17:20;93523.34;;;12.40;85.94
12775;BME280;6451;42.630;23.382;2023-04-02T05:19:51;93556.41;;;12.97;84.28
12775;BME280;6451;42.630;23.382;2023-04-02T05:22:28;93529.25;;;12.01;87.01
12775;BME280;6451;42.630;23.382;2023-04-02T05:25:12;93558.88;;;12.61;86.92
12775;BME280;6451;42.630;23.382;2023-04-02T05:27:43;93557.28;;;12.53;85.69
12775;BME280;6451;42.630;23.382;2023-04-02T05:30:31;93565.28;;;12.87;87.15
12775;BME280;6451;42.630;23.382;2023-04-02T05:33:05;93556.91;;;13.17;83.91
12775;BME280;6451;42.630;23.382;2023-04-02T05:35:41;93528.16;;;13.23;82.93
12775;BME280;6451;42.630;23.382;2023-04-02T05:38:18;93562.88;;;13.37;81.97
12775;BME280;6451;42.630;23.382;2023-04-02T05:40:51;93563.91;;;13.14;82.75
12775;BME280;6451;42.630;23.382;2023-04-02T05:43:24;93570.91;;;13.15;82.89
12775;BME280;6451;42.630;23.382;2023-04-02T05:45:54;93577.03;;;13.78;81.20
12775;BME280;6451;42.630;23.382;2023-04-02T05:48:27;93560.34;;;13.94;78.16
12775;BME280;6451;42.630;23.382;2023-04-02T05:50:56;93555.13;;;13.42;79.65
12775;BME280;6451;42.630;23.382;2023-04-02T05:53:26;93583.50;;;13.41;81.34
12775;BME280;6451;42.630;23.382;2023-04-02T05:55:57;93554.00;;;13.61;80.10
12775;BME280;6451;42.630;23.382;2023-04-02T05:58:31;93583.28;;;13.75;80.51
12775;BME280;6451;42.630;23.382;2023-04-02T06:01:05;93581.50;;;14.54;77.97
12775;BME280;6451;42.630;23.382;2023-04-02T06:03:41;93569.38;;;14.40;76.05
12775;BME280;6451;42.630;23.382;2023-04-02T06:06:23;93592.41;;;14.61;76.30
12775;BME280;6451;42.630;23.382;2023-04-02T06:08:56;93517.50;;;14.30;75.24
12775;BME280;6451;42.630;23.382;2023-04-02T06:11:30;93595.94;;;14.58;75.96
12775;BME280;6451;42.630;23.382;2023-04-02T06:13:58;93521.28;;;13.50;77.54
12775;BME280;6451;42.630;23.382;2023-04-02T06:16:28;93594.34;;;14.35;77.53
12775;BME280;6451;42.630;23.382;2023-04-02T06:18:57;93574.50;;;14.67;74.57
12775;BME280;6451;42.630;23.382;2023-04-02T06:21:25;93562.00;;;14.69;74.49
12775;BME280;6451;42.630;23.382;2023-04-02T06:23:54;93585.78;;;15.05;74.81
12775;BME280;6451;42.630;23.382;2023-04-02T06:26:27;93593.22;;;14.83;75.25
12775;BME280;6451;42.630;23.382;2023-04-02T06:29:02;93520.66;;;14.42;74.57
12775;BME280;6451;42.630;23.382;2023-04-02T06:31:37;93598.59;;;15.29;73.15
12775;BME280;6451;42.630;23.382;2023-04-02T06:34:13;93583.69;;;15.62;70.71
12775;BME280;6451;42.630;23.382;2023-04-02T06:36:41;93581.22;;;15.93;69.42
12775;BME280;6451;42.630;23.382;2023-04-02T06:39:17;93579.22;;;16.04;68.19
12775;BME280;6451;42.630;23.382;2023-04-02T06:41:45;93581.59;;;15.98;67.82
12775;BME280;6451;42.630;23.382;2023-04-02T06:44:15;93581.97;;;16.00;67.53
12775;BME280;6451;42.630;23.382;2023-04-02T06:46:46;93579.44;;;16.31;65.98
12775;BME280;6451;42.630;23.382;2023-04-02T06:49:19;93533.88;;;16.03;66.19
12775;BME280;6451;42.630;23.382;2023-04-02T06:51:51;93545.28;;;15.91;66.14
12775;BME280;6451;42.630;23.382;2023-04-02T06:54:20;93580.38;;;16.06;67.07
12775;BME280;6451;42.630;23.382;2023-04-02T06:56:50;93580.00;;;16.63;64.64
12775;BME280;6451;42.630;23.382;2023-04-02T06:59:18;93587.16;;;16.50;64.38
12775;BME280;6451;42.630;23.382;2023-04-02T07:01:49;93581.41;;;16.86;63.11
12775;BME280;6451;42.630;23.382;2023-04-02T07:04:19;93601.47;;;16.68;62.69
12775;BME280;6451;42.630;23.382;2023-04-02T07:06:46;93599.84;;;17.27;60.83
12775;BME280;6451;42.630;23.382;2023-04-02T07:09:15;93601.25;;;17.01;60.86
12775;BME280;6451;42.630;23.382;2023-04-02T07:11:42;93591.03;;;17.46;60.44
12775;BME280;6451;42.630;23.382;2023-04-02T07:14:12;93592.25;;;17.00;58.49
12775;BME280;6451;42.630;23.382;2023-04-02T07:16:40;93598.56;;;16.93;58.91
12775;BME280;6451;42.630;23.382;2023-04-02T07:19:15;93610.00;;;16.85;58.94
12775;BME280;6451;42.630;23.382;2023-04-02T07:21:43;93599.53;;;17.55;56.64
12775;BME280;6451;42.630;23.382;2023-04-02T07:24:10;93600.84;;;17.43;59.34
12775;BME280;6451;42.630;23.382;2023-04-02T07:26:37;93612.03;;;17.22;60.67
12775;BME280;6451;42.630;23.382;2023-04-02T07:29:05;93610.66;;;17.00;60.18
12775;BME280;6451;42.630;23.382;2023-04-02T07:31:37;93606.47;;;16.84;61.24
12775;BME280;6451;42.630;23.382;2023-04-02T07:34:04;93605.41;;;17.19;60.40
12775;BME280;6451;42.630;23.382;2023-04-02T07:36:32;93591.81;;;17.46;60.60
12775;BME280;6451;42.630;23.382;2023-04-02T07:39:03;93624.94;;;18.00;59.35
12775;BME280;6451;42.630;23.382;2023-04-02T07:41:30;93612.47;;;18.26;57.08
12775;BME280;6451;42.630;23.382;2023-04-02T07:43:58;93624.63;;;17.57;54.65
12775;BME280;6451;42.630;23.382;2023-04-02T07:46:27;93627.25;;;18.32;53.80
12775;BME280;6451;42.630;23.382;2023-04-02T07:48:55;93614.50;;;17.88;54.59
12775;BME280;6451;42.630;23.382;2023-04-02T07:51:24;93620.78;;;18.19;54.30
12775;BME280;6451;42.630;23.382;2023-04-02T07:53:51;93611.72;;;17.92;54.72
12775;BME280;6451;42.630;23.382;2023-04-02T07:56:21;93616.75;;;17.59;53.37
12775;BME280;6451;42.630;23.382;2023-04-02T07:58:49;93620.44;;;17.01;53.36
12775;BME280;6451;42.630;23.382;2023-04-02T08:01:18;93617.69;;;17.83;52.64
12775;BME280;6451;42.630;23.382;2023-04-02T08:03:46;93620.19;;;17.29;53.38
12775;BME280;6451;42.630;23.382;2023-04-02T08:06:14;93611.25;;;17.21;54.48
12775;BME280;6451;42.630;23.382;2023-04-02T08:08:41;93618.47;;;16.46;54.03
12775;BME280;6451;42.630;23.382;2023-04-02T08:11:09;93623.38;;;17.24;53.79
12775;BME280;6451;42.630;23.382;2023-04-02T08:13:36;93618.03;;;17.06;50.87
12775;BME280;6451;42.630;23.382;2023-04-02T08:16:04;93588.97;;;16.67;50.82
12775;BME280;6451;42.630;23.382;2023-04-02T08:18:32;93624.91;;;17.29;50.08
12775;BME280;6451;42.630;23.382;2023-04-02T08:20:59;93612.56;;;17.47;49.31
12775;BME280;6451;42.630;23.382;2023-04-02T08:23:29;93629.19;;;17.30;49.85
12775;BME280;6451;42.630;23.382;2023-04-02T08:25:56;93611.06;;;16.98;50.00
12775;BME280;6451;42.630;23.382;2023-04-02T08:28:23;93617.25;;;17.50;49.35
12775;BME280;6451;42.630;23.382;2023-04-02T08:30:51;93614.53;;;17.02;50.24
12775;BME280;6451;42.630;23.382;2023-04-02T08:33:18;93606.06;;;16.86;50.66
12775;BME280;6451;42.630;23.382;2023-04-02T08:35:46;93606.19;;;17.58;50.43
12775;BME280;6451;42.630;23.382;2023-04-02T08:38:14;93630.00;;;17.68;49.54
12775;BME280;6451;42.630;23.382;2023-04-02T08:40:44;93607.72;;;17.21;48.82
12775;BME280;6451;42.630;23.382;2023-04-02T08:43:29;93636.53;;;17.40;49.43
12775;BME280;6451;42.630;23.382;2023-04-02T08:46:08;93628.00;;;17.31;49.30
12775;BME280;6451;42.630;23.382;2023-04-02T08:48:43;93629.31;;;17.19;48.98
12775;BME280;6451;42.630;23.382;2023-04-02T08:51:20;93600.06;;;17.43;48.70
12775;BME280;6451;42.630;23.382;2023-04-02T08:53:50;93628.16;;;17.95;48.08
12775;BME280;6451;42.630;23.382;2023-04-02T08:56:26;93631.94;;;17.67;47.40
12775;BME280;6451;42.630;23.382;2023-04-02T08:58:57;93628.25;;;18.19;47.36
12775;BME280;6451;42.630;23.382;2023-04-02T09:01:34;93510.31;;;17.09;47.25
12775;BME280;6451;42.630;23.382;2023-04-02T09:04:08;93627.91;;;17.41;47.82
12775;BME280;6451;42.630;23.382;2023-04-02T09:06:39;93626.13;;;17.62;47.58
12775;BME280;6451;42.630;23.382;2023-04-02T09:09:08;93620.47;;;18.14;47.43
12775;BME280;6451;42.630;23.382;2023-04-02T09:11:43;93627.91;;;18.44;46.79
12775;BME280;6451;42.630;23.382;2023-04-02T09:14:15;93618.28;;;18.59;45.73
12775;BME280;6451;42.630;23.382;2023-04-02T09:16:45;93463.50;;;17.61;44.90
12775;BME280;6451;42.630;23.382;2023-04-02T09:19:19;93625.19;;;18.98;43.47
12775;BME280;6451;42.630;23.382;2023-04-02T09:21:55;93607.84;;;19.24;43.53
12775;BME280;6451;42.630;23.382;2023-04-02T09:24:26;93634.94;;;18.75;44.03
12775;BME280;6451;42.630;23.382;2023-04-02T09:26:54;93631.03;;;19.00;43.37
12775;BME280;6451;42.630;23.382;2023-04-02T09:29:39;93634.59;;;18.73;43.59
12775;BME280;6451;42.630;23.382;2023-04-02T09:32:35;93628.72;;;19.45;42.21
12775;BME280;6451;42.630;23.382;2023-04-02T09:35:12;93626.28;;;19.04;41.34
12775;BME280;6451;42.630;23.382;2023-04-02T09:37:40;93580.03;;;19.42;40.63
12775;BME280;6451;42.630;23.382;2023-04-02T09:40:21;93616.59;;;19.66;40.01
12775;BME280;6451;42.630;23.382;2023-04-02T09:43:04;93604.47;;;20.39;40.42
12775;BME280;6451;42.630;23.382;2023-04-02T09:45:34;93601.91;;;19.92;41.04
12775;BME280;6451;42.630;23.382;2023-04-02T09:48:01;93606.78;;;19.85;40.37
12775;BME280;6451;42.630;23.382;2023-04-02T09:50:30;93497.19;;;19.16;39.89
12775;BME280;6451;42.630;23.382;2023-04-02T09:52:58;93600.72;;;19.74;40.23
12775;BME280;6451;42.630;23.382;2023-04-02T09:55:42;93585.75;;;19.51;40.59
12775;BME280;6451;42.630;23.382;2023-04-02T09:58:14;93555.53;;;19.91;38.58
12775;BME280;6451;42.630;23.382;2023-04-02T10:00:49;93599.44;;;19.58;39.34
12775;BME280;6451;42.630;23.382;2023-04-02T10:03:23;93512.22;;;18.38;40.01
12775;BME280;6451;42.630;23.382;2023-04-02T10:06:08;93567.97;;;19.79;38.75
12775;BME280;6451;42.630;23.382;2023-04-02T10:08:38;93615.81;;;19.19;40.20
12775;BME280;6451;42.630;23.382;2023-04-02T10:11:11;93595.06;;;19.14;39.30
12775;BME280;6451;42.630;23.382;2023-04-02T10:13:47;93587.78;;;19.90;37.91
12775;BME280;6451;42.630;23.382;2023-04-02T10:16:19;93576.63;;;20.17;38.13
12775;BME280;6451;42.630;23.382;2023-04-02T10:18:51;93540.44;;;19.36;38.46
12775;BME280;6451;42.630;23.382;2023-04-02T10:21:24;93583.69;;;20.18;38.14
12775;BME280;6451;42.630;23.382;2023-04-02T10:23:53;93578.13;;;19.82;36.75
12775;BME280;6451;42.630;23.382;2023-04-02T10:26:45;93578.78;;;20.62;36.96
12775;BME280;6451;42.630;23.382;2023-04-02T10:29:47;93589.81;;;20.26;36.65
12775;BME280;6451;42.630;23.382;2023-04-02T10:32:20;93588.72;;;20.60;35.81
12775;BME280;6451;42.630;23.382;2023-04-02T10:34:55;93587.41;;;20.28;36.63
12775;BME280;6451;42.630;23.382;2023-04-02T10:37:43;93591.88;;;19.62;37.04
12775;BME280;6451;42.630;23.382;2023-04-02T10:40:18;93541.56;;;19.19;37.53
12775;BME280;6451;42.630;23.382;2023-04-02T10:42:52;93530.97;;;18.94;37.54
12775;BME280;6451;42.630;23.382;2023-04-02T10:45:34;93563.88;;;19.87;36.85
12775;BME280;6451;42.630;23.382;2023-04-02T10:48:10;93585.72;;;20.14;38.78
12775;BME280;6451;42.630;23.382;2023-04-02T10:50:48;93580.94;;;19.35;39.87
12775;BME280;6451;42.630;23.382;2023-04-02T10:53:17;93583.72;;;19.79;40.11
12775;BME280;6451;42.630;23.382;2023-04-02T10:55:48;93585.66;;;19.35;40.67
12775;BME280;6451;42.630;23.382;2023-04-02T10:58:22;93606.28;;;19.23;41.79
12775;BME280;6451;42.630;23.382;2023-04-02T11:00:54;93578.00;;;19.23;41.39
12775;BME280;6451;42.630;23.382;2023-04-02T11:03:29;93586.00;;;19.17;41.80
12775;BME280;6451;42.630;23.382;2023-04-02T11:06:02;93577.00;;;19.13;42.28
12775;BME280;6451;42.630;23.382;2023-04-02T11:08:38;93593.63;;;19.06;41.70
12775;BME280;6451;42.630;23.382;2023-04-02T11:11:11;93579.28;;;19.41;41.36
12775;BME280;6451;42.630;23.382;2023-04-02T11:13:46;93511.47;;;18.88;40.99
12775;BME280;6451;42.630;23.382;2023-04-02T11:16:17;93564.59;;;19.71;40.84
12775;BME280;6451;42.630;23.382;2023-04-02T11:19:18;93577.97;;;19.89;41.04
12775;BME280;6451;42.630;23.382;2023-04-02T11:21:47;93600.19;;;18.88;42.96
12775;BME280;6451;42.630;23.382;2023-04-02T11:24:42;93576.00;;;19.70;41.39
12775;BME280;6451;42.630;23.382;2023-04-02T11:27:16;93568.13;;;20.28;40.73
12775;BME280;6451;42.630;23.382;2023-04-02T11:29:46;93577.50;;;19.94;40.62
12775;BME280;6451;42.630;23.382;2023-04-02T11:32:45;93571.81;;;20.21;40.30
12775;BME280;6451;42.630;23.382;2023-04-02T11:35:26;93577.31;;;20.21;40.13
12775;BME280;6451;42.630;23.382;2023-04-02T11:38:01;93556.84;;;20.59;40.09
12775;BME280;6451;42.630;23.382;2023-04-02T11:40:46;93568.78;;;19.56;40.66
12775;BME280;6451;42.630;23.382;2023-04-02T11:43:46;93585.06;;;19.00;41.74
12775;BME280;6451;42.630;23.382;2023-04-02T11:46:37;93576.50;;;19.41;41.34
12775;BME280;6451;42.630;23.382;2023-04-02T11:49:35;93568.16;;;19.88;40.93
12775;BME280;6451;42.630;23.382;2023-04-02T11:52:03;93568.31;;;19.38;41.45
12775;BME280;6451;42.630;23.382;2023-04-02T11:54:35;93564.00;;;19.37;40.46
12775;BME280;6451;42.630;23.382;2023-04-02T11:57:09;93565.53;;;20.01;39.72
12775;BME280;6451;42.630;23.382;2023-04-02T11:59:50;93549.88;;;19.78;39.93
12775;BME280;6451;42.630;23.382;2023-04-02T12:02:27;93554.19;;;19.99;39.66
12775;BME280;6451;42.630;23.382;2023-04-02T12:05:18;93558.19;;;20.14;39.61
12775;BME280;6451;42.630;23.382;2023-04-02T12:08:12;93550.66;;;20.71;38.91
12775;BME280;6451;42.630;23.382;2023-04-02T12:10:55;93565.03;;;20.06;39.36
12775;BME280;6451;42.630;23.382;2023-04-02T12:13:47;93562.03;;;19.81;40.01
12775;BME280;6451;42.630;23.382;2023-04-02T12:16:15;93557.00;;;19.56;39.97
12775;BME280;6451;42.630;23.382;2023-04-02T12:18:44;93524.09;;;19.49;39.93
12775;BME280;6451;42.630;23.382;2023-04-02T12:21:16;93542.47;;;19.95;39.90
12775;BME280;6451;42.630;23.382;2023-04-02T12:23:44;93551.34;;;20.39;39.15
12775;BME280;6451;42.630;23.382;2023-04-02T12:26:30;93540.56;;;20.28;40.38
12775;BME280;6451;42.630;23.382;2023-04-02T12:29:15;93553.41;;;19.59;39.96
12775;BME280;6451;42.630;23.382;2023-04-02T12:31:46;93563.44;;;19.69;39.72
12775;BME280;6451;42.630;23.382;2023-04-02T12:34:15;93525.84;;;19.39;39.75
12775;BME280;6451;42.630;23.382;2023-04-02T12:36:53;93540.72;;;19.65;40.30
12775;BME280;6451;42.630;23.382;2023-04-02T12:39:21;93548.91;;;19.88;39.71
12775;BME280;6451;42.630;23.382;2023-04-02T12:41:48;93548.72;;;19.56;39.95
12775;BME280;6451;42.630;23.382;2023-04-02T12:44:17;93544.78;;;19.96;39.50
12775;BME280;6451;42.630;23.382;2023-04-02T12:46:47;93536.75;;;20.22;39.25
12775;BME280;6451;42.630;23.382;2023-04-02T12:49:27;93552.34;;;19.92;38.76
12775;BME280;6451;42.630;23.382;2023-04-02T12:51:58;93554.19;;;19.79;38.76
12775;BME280;6451;42.630;23.382;2023-04-02T12:54:28;93550.03;;;19.71;38.81
12775;BME280;6451;42.630;23.382;2023-04-02T12:59:57;93534.69;;;20.10;38.46
12775;BME280;6451;42.630;23.382;2023-04-02T13:02:27;93525.44;;;20.36;37.88
12775;BME280;6451;42.630;23.382;2023-04-02T13:04:56;93513.81;;;20.09;38.46
12775;BME280;6451;42.630;23.382;2023-04-02T13:07:29;93529.63;;;20.77;37.77
12775;BME280;6451;42.630;23.382;2023-04-02T13:09:57;93467.59;;;20.69;37.18
12775;BME280;6451;42.630;23.382;2023-04-02T13:12:26;93528.84;;;20.24;37.87
12775;BME280;6451;42.630;23.382;2023-04-02T13:14:58;93521.50;;;20.53;37.50
12775;BME280;6451;42.630;23.382;2023-04-02T13:17:36;93516.63;;;21.39;36.38
12775;BME280;6451;42.630;23.382;2023-04-02T13:20:29;93521.16;;;21.00;36.81
12775;BME280;6451;42.630;23.382;2023-04-02T13:22:59;93530.16;;;20.56;36.89
12775;BME280;6451;42.630;23.382;2023-04-02T13:25:28;93519.69;;;20.47;37.25
12775;BME280;6451;42.630;23.382;2023-04-02T13:27:56;93509.88;;;20.95;36.61
12775;BME280;6451;42.630;23.382;2023-04-02T13:30:24;93537.72;;;21.00;36.89
12775;BME280;6451;42.630;23.382;2023-04-02T13:32:52;93517.41;;;20.78;36.18
12775;BME280;6451;42.630;23.382;2023-04-02T13:35:18;93505.16;;;20.63;36.40
12775;BME280;6451;42.630;23.382;2023-04-02T13:37:46;93513.94;;;21.52;35.89
12775;BME280;6451;42.630;23.382;2023-04-02T13:40:16;93504.84;;;22.09;35.36